createdAt,value
2019-06-07T00:01:13.689Z,12.37
2019-06-07T00:03:45.169Z,12.39
2019-06-07T00:06:21.346Z,12.44
2019-06-07T00:08:47.822Z,12.41
2019-06-07T00:11:20.680Z,12.37
2019-06-07T00:13:51.694Z,12.38
2019-06-07T00:16:23.472Z,12.39
2019-06-07T00:18:54.593Z,12.40
2019-06-07T00:22:12.327Z,12.38
2019-06-07T00:23:58.755Z,12.38
2019-06-07T00:26:29.916Z,12.41
2019-06-07T00:29:00.901Z,12.41
2019-06-07T00:31:32.147Z,12.43
2019-06-07T00:34:03.113Z,12.47
2019-06-07T00:36:34.443Z,12.52
2019-06-07T00:39:10.532Z,12.57
2019-06-07T00:41:40.257Z,12.57
2019-06-07T00:44:12.508Z,12.58
2019-06-07T00:46:43.548Z,12.56
2019-06-07T00:49:34.890Z,12.58
2019-06-07T00:51:50.427Z,12.60
2019-06-07T00:54:22.454Z,12.61
2019-06-07T00:56:53.215Z,12.62
2019-06-07T00:59:29.278Z,12.59
2019-06-07T01:01:57.428Z,12.58
2019-06-07T01:04:28.681Z,12.59
2019-06-07T01:06:59.716Z,12.63
2019-06-07T01:09:30.989Z,12.67
2019-06-07T01:12:02.016Z,12.66
2019-06-07T01:14:33.144Z,12.67
2019-06-07T01:17:23.365Z,12.67
2019-06-07T01:19:44.746Z,12.69
2019-06-07T01:22:17.822Z,12.65
2019-06-07T01:24:48.679Z,12.63
2019-06-07T01:27:22.549Z,12.65
2019-06-07T01:29:52.587Z,12.62
2019-06-07T01:32:26.971Z,12.56
2019-06-07T01:34:56.355Z,12.49
2019-06-07T01:37:29.982Z,12.48
2019-06-07T01:40:00.319Z,12.48
2019-06-07T01:42:31.452Z,12.50
2019-06-07T01:45:02.648Z,12.52
2019-06-07T01:47:34.090Z,12.52
2019-06-07T01:50:08.276Z,12.54
2019-06-07T01:52:39.499Z,12.57
2019-06-07T01:55:10.728Z,12.54
2019-06-07T01:57:48.167Z,12.52
2019-06-07T02:00:14.640Z,12.51
2019-06-07T02:02:45.665Z,12.51
2019-06-07T02:05:19.140Z,12.56
2019-06-07T02:07:49.696Z,12.59
2019-06-07T02:10:24.731Z,12.59
2019-06-07T02:12:53.730Z,12.58
2019-06-07T02:15:30.641Z,12.58
2019-06-07T02:17:58.241Z,12.59
2019-06-07T02:20:31.867Z,12.60
2019-06-07T02:23:01.954Z,12.67
2019-06-07T02:25:45.506Z,12.72
2019-06-07T02:28:27.406Z,12.73
2019-06-07T02:30:47.232Z,12.72
2019-06-07T02:33:11.577Z,12.76
2019-06-07T02:35:41.800Z,12.76
2019-06-07T02:38:12.879Z,12.77
2019-06-07T02:40:44.009Z,12.80
2019-06-07T02:43:15.325Z,12.78
2019-06-07T02:45:46.266Z,12.83
2019-06-07T02:48:17.332Z,12.85
2019-06-07T02:50:49.014Z,12.81
2019-06-07T02:53:20.536Z,12.77
2019-06-07T02:56:33.950Z,12.75
2019-06-07T02:58:26.123Z,12.72
2019-06-07T03:01:08.686Z,12.72
2019-06-07T03:03:32.609Z,12.74
2019-06-07T03:06:03.713Z,12.72
2019-06-07T03:08:36.585Z,12.69
2019-06-07T03:11:07.560Z,12.68
2019-06-07T03:13:40.988Z,12.71
2019-06-07T03:16:14.048Z,12.69
2019-06-07T03:18:51.499Z,12.61
2019-06-07T03:21:33.768Z,12.55
2019-06-07T03:24:05.097Z,12.47
2019-06-07T03:27:30.323Z,12.43
2019-06-07T03:29:09.218Z,12.47
2019-06-07T03:31:47.086Z,12.49
2019-06-07T03:34:13.068Z,12.49
2019-06-07T03:36:44.367Z,12.50
2019-06-07T03:39:15.388Z,12.52
2019-06-07T03:42:05.033Z,12.56
2019-06-07T03:44:22.582Z,12.63
2019-06-07T03:46:53.707Z,12.72
2019-06-07T03:49:24.594Z,12.86
2019-06-07T03:51:54.759Z,12.98
2019-06-07T03:54:27.174Z,13.04
2019-06-07T03:56:58.177Z,13.04
2019-06-07T03:59:35.579Z,13.10
2019-06-07T04:02:02.056Z,13.14
2019-06-07T04:04:36.990Z,13.14
2019-06-07T04:07:05.929Z,13.02
2019-06-07T04:09:41.916Z,12.97
2019-06-07T04:12:09.731Z,13.00
2019-06-07T04:14:42.815Z,13.03
2019-06-07T04:17:13.785Z,13.06
2019-06-07T04:19:44.908Z,13.03
2019-06-07T04:22:15.842Z,13.05
2019-06-07T04:24:45.969Z,13.12
2019-06-07T04:27:17.249Z,13.19
2019-06-07T04:30:06.557Z,13.21
2019-06-07T04:32:21.227Z,13.31
2019-06-07T04:34:52.184Z,13.41
2019-06-07T04:37:25.725Z,13.49
2019-06-07T04:39:57.715Z,13.54
2019-06-07T04:42:34.987Z,13.56
2019-06-07T04:45:06.384Z,13.68
2019-06-07T04:47:42.430Z,13.80
2019-06-07T04:50:13.200Z,13.89
2019-06-07T04:52:45.720Z,13.98
2019-06-07T04:55:16.974Z,14.05
2019-06-07T04:57:48.240Z,14.07
2019-06-07T05:00:58.405Z,14.26
2019-06-07T05:02:59.837Z,14.13
2019-06-07T05:05:31.858Z,14.17
2019-06-07T05:08:07.478Z,14.22
2019-06-07T05:10:38.778Z,14.03
2019-06-07T05:13:09.611Z,14.09
2019-06-07T05:15:42.371Z,14.05
2019-06-07T05:18:13.483Z,13.94
2019-06-07T05:20:44.915Z,13.96
2019-06-07T05:23:59.458Z,13.96
2019-06-07T05:25:49.975Z,13.89
2019-06-07T05:28:20.895Z,13.78
2019-06-07T05:31:08.108Z,13.90
2019-06-07T05:33:25.293Z,13.99
2019-06-07T05:35:56.741Z,14.10
2019-06-07T05:38:27.917Z,14.21
2019-06-07T05:40:58.125Z,14.37
2019-06-07T05:43:29.935Z,14.49
2019-06-07T05:46:00.909Z,14.48
2019-06-07T05:48:36.673Z,14.50
2019-06-07T05:51:10.765Z,14.51
2019-06-07T05:53:43.165Z,14.63
2019-06-07T05:56:15.421Z,14.66
2019-06-07T05:58:46.825Z,14.59
2019-06-07T06:03:50.735Z,15.49
2019-06-07T06:06:24.345Z,15.70
2019-06-07T06:09:12.840Z,15.95
2019-06-07T06:11:43.362Z,16.32
2019-06-07T06:14:07.625Z,16.76
2019-06-07T06:16:33.025Z,16.74
2019-06-07T06:19:04.059Z,17.21
2019-06-07T06:21:36.210Z,16.93
2019-06-07T06:24:07.286Z,16.55
2019-06-07T06:26:47.702Z,16.74
2019-06-07T06:29:11.052Z,16.87
2019-06-07T06:32:30.225Z,17.06
2019-06-07T06:34:15.175Z,16.35
2019-06-07T06:36:49.735Z,18.55
2019-06-07T06:39:19.337Z,17.72
2019-06-07T06:42:00.839Z,19.48
2019-06-07T06:44:23.206Z,19.00
2019-06-07T06:46:58.233Z,18.97
2019-06-07T06:49:27.044Z,18.25
2019-06-07T06:51:57.174Z,17.77
2019-06-07T06:54:40.577Z,17.92
2019-06-07T06:57:18.084Z,19.88
2019-06-07T06:59:39.206Z,21.98
2019-06-07T07:02:06.700Z,22.87
2019-06-07T07:04:38.048Z,21.89
2019-06-07T07:07:09.591Z,22.10
2019-06-07T07:09:43.859Z,21.99
2019-06-07T07:12:15.054Z,20.32
2019-06-07T07:14:49.136Z,20.62
2019-06-07T07:17:19.186Z,20.31
2019-06-07T07:19:52.292Z,21.60
2019-06-07T07:22:22.987Z,21.54
2019-06-07T07:24:54.566Z,20.70
2019-06-07T07:27:25.887Z,20.85
2019-06-07T07:30:34.970Z,21.21
2019-06-07T07:32:29.778Z,20.37
2019-06-07T07:35:04.700Z,20.13
2019-06-07T07:37:35.760Z,20.28
2019-06-07T07:40:54.963Z,20.01
2019-06-07T07:42:40.154Z,20.78
2019-06-07T07:45:11.380Z,20.43
2019-06-07T07:47:58.342Z,20.68
2019-06-07T07:50:15.507Z,20.35
2019-06-07T07:52:49.083Z,20.35
2019-06-07T07:55:19.517Z,19.84
2019-06-07T07:57:58.007Z,19.87
2019-06-07T08:02:59.644Z,19.95
2019-06-07T08:05:42.440Z,20.13
2019-06-07T08:08:05.347Z,20.33
2019-06-07T08:10:35.248Z,20.24
2019-06-07T08:13:23.637Z,20.62
2019-06-07T08:15:39.265Z,20.98
2019-06-07T08:18:10.299Z,21.18
2019-06-07T08:21:01.527Z,21.13
2019-06-07T08:23:14.235Z,20.86
2019-06-07T08:25:46.738Z,21.19
2019-06-07T08:28:17.911Z,20.70
2019-06-07T08:30:56.763Z,20.56
2019-06-07T08:33:26.665Z,20.96
2019-06-07T08:36:10.869Z,21.13
2019-06-07T08:38:46.577Z,21.06
2019-06-07T08:41:11.026Z,20.93
2019-06-07T08:43:32.484Z,21.31
2019-06-07T08:46:07.492Z,21.31
2019-06-07T08:48:36.519Z,21.81
2019-06-07T08:51:08.743Z,22.18
2019-06-07T08:53:40.169Z,22.36
2019-06-07T08:56:11.734Z,22.25
2019-06-07T08:58:43.131Z,22.63
2019-06-07T09:01:14.046Z,22.80
2019-06-07T09:03:45.321Z,23.05
2019-06-07T09:07:01.111Z,22.93
2019-06-07T09:08:49.292Z,22.80
2019-06-07T09:11:20.239Z,22.52
2019-06-07T09:13:50.314Z,22.48
2019-06-07T09:16:21.559Z,22.77
2019-06-07T09:18:57.013Z,23.04
2019-06-07T09:21:25.681Z,22.88
2019-06-07T09:24:00.325Z,23.24
2019-06-07T09:26:30.465Z,23.51
2019-06-07T09:29:06.853Z,23.74
2019-06-07T09:31:51.757Z,23.52
2019-06-07T09:34:13.951Z,24.06
2019-06-07T09:36:41.437Z,24.83
2019-06-07T09:39:12.909Z,24.12
2019-06-07T09:41:49.765Z,24.18
2019-06-07T09:44:24.877Z,24.78
2019-06-07T09:47:07.916Z,24.80
2019-06-07T09:49:31.860Z,25.04
2019-06-07T09:51:55.772Z,25.38
2019-06-07T09:55:03.158Z,26.00
2019-06-07T09:57:02.641Z,26.47
2019-06-07T09:59:33.197Z,26.58
2019-06-07T10:02:08.215Z,26.30
2019-06-07T10:04:37.142Z,26.28
2019-06-07T10:07:27.286Z,26.33
2019-06-07T10:10:09.998Z,26.95
2019-06-07T10:12:14.058Z,27.91
2019-06-07T10:14:45.478Z,27.71
2019-06-07T10:17:16.578Z,28.34
2019-06-07T10:19:47.826Z,28.34
2019-06-07T10:22:18.886Z,28.12
2019-06-07T10:24:49.065Z,28.12
2019-06-07T10:27:20.301Z,28.02
2019-06-07T10:29:51.283Z,28.11
2019-06-07T10:32:22.783Z,27.65
2019-06-07T10:34:53.872Z,27.14
2019-06-07T10:37:25.164Z,27.14
2019-06-07T10:39:56.212Z,27.45
2019-06-07T10:42:27.754Z,28.16
2019-06-07T10:44:58.757Z,28.16
2019-06-07T10:47:30.069Z,28.19
2019-06-07T10:50:01.935Z,27.78
2019-06-07T10:52:33.560Z,27.63
2019-06-07T10:55:06.800Z,28.03
2019-06-07T10:57:38.685Z,27.42
2019-06-07T11:00:11.822Z,27.26
2019-06-07T11:02:42.932Z,27.44
2019-06-07T11:05:14.623Z,27.17
2019-06-07T11:07:45.760Z,28.07
2019-06-07T11:10:19.952Z,28.07
2019-06-07T11:12:49.924Z,27.63
2019-06-07T11:15:21.274Z,28.22
2019-06-07T11:17:52.352Z,28.49
2019-06-07T11:20:23.802Z,28.46
2019-06-07T11:22:54.798Z,28.36
2019-06-07T11:25:26.081Z,28.36
2019-06-07T11:27:57.110Z,29.44
2019-06-07T11:30:28.444Z,29.42
2019-06-07T11:32:59.496Z,29.67
2019-06-07T11:35:29.703Z,29.42
2019-06-07T11:38:00.940Z,29.25
2019-06-07T11:40:35.973Z,29.16
2019-06-07T11:43:05.071Z,29.14
2019-06-07T11:45:36.226Z,29.59
2019-06-07T11:48:07.522Z,29.60
2019-06-07T11:50:38.641Z,28.27
2019-06-07T11:53:10.760Z,28.76
2019-06-07T11:55:41.866Z,29.83
2019-06-07T11:58:18.421Z,30.26
2019-06-07T12:00:46.178Z,29.58
2019-06-07T12:03:18.010Z,28.84
2019-06-07T12:05:49.314Z,29.67
2019-06-07T12:08:19.581Z,29.94
2019-06-07T12:10:50.860Z,30.73
2019-06-07T12:13:22.011Z,30.17
2019-06-07T12:15:53.354Z,30.18
2019-06-07T12:18:24.492Z,30.42
2019-06-07T12:20:55.714Z,30.65
2019-06-07T12:23:26.702Z,30.35
2019-06-07T12:25:58.099Z,30.22
2019-06-07T12:28:29.252Z,29.57
2019-06-07T12:31:01.993Z,29.35
2019-06-07T12:33:33.196Z,30.55
2019-06-07T12:36:04.573Z,30.64
2019-06-07T12:38:35.727Z,30.56
2019-06-07T12:41:06.000Z,30.82
2019-06-07T12:43:37.334Z,30.80
2019-06-07T12:46:08.407Z,31.31
2019-06-07T12:48:39.733Z,30.79
2019-06-07T12:51:10.762Z,30.61
2019-06-07T12:53:42.015Z,30.10
2019-06-07T12:56:13.547Z,30.53
2019-06-07T12:58:45.126Z,31.34
2019-06-07T13:01:16.391Z,32.30
2019-06-07T13:03:47.766Z,31.96
2019-06-07T13:06:19.529Z,31.19
2019-06-07T13:08:52.488Z,31.02
2019-06-07T13:11:28.214Z,30.82
2019-06-07T13:13:55.345Z,30.62
2019-06-07T13:16:26.588Z,30.28
2019-06-07T13:18:59.307Z,30.90
2019-06-07T13:21:30.817Z,31.00
2019-06-07T13:24:01.958Z,30.60
2019-06-07T13:26:36.146Z,30.48
2019-06-07T13:29:07.310Z,31.20
2019-06-07T13:31:38.775Z,31.16
2019-06-07T13:34:09.957Z,31.31
2019-06-07T13:36:41.253Z,31.76
2019-06-07T13:39:12.352Z,31.24
2019-06-07T13:41:43.648Z,31.07
2019-06-07T13:44:14.811Z,30.35
2019-06-07T13:46:46.251Z,30.37
2019-06-07T13:49:17.400Z,30.44
2019-06-07T13:51:47.787Z,30.92
2019-06-07T13:54:20.587Z,31.00
2019-06-07T13:57:02.254Z,30.45
2019-06-07T13:59:26.361Z,30.70
2019-06-07T14:01:57.556Z,30.71
2019-06-07T14:04:29.194Z,31.00
2019-06-07T14:07:00.308Z,30.96
2019-06-07T14:09:31.816Z,30.76
2019-06-07T14:12:05.693Z,30.75
2019-06-07T14:14:37.119Z,31.44
2019-06-07T14:17:08.218Z,31.21
2019-06-07T14:19:41.113Z,31.90
2019-06-07T14:22:12.112Z,32.07
2019-06-07T14:24:42.687Z,32.21
2019-06-07T14:27:14.176Z,31.93
2019-06-07T14:29:45.311Z,31.84
2019-06-07T14:32:16.678Z,31.98
2019-06-07T14:34:47.768Z,32.09
2019-06-07T14:37:19.174Z,32.46
2019-06-07T14:39:50.367Z,32.23
2019-06-07T14:42:23.333Z,31.89
2019-06-07T14:44:54.648Z,31.45
2019-06-07T14:47:26.213Z,31.84
2019-06-07T14:49:57.347Z,31.84
2019-06-07T14:52:28.729Z,31.48
2019-06-07T14:54:59.949Z,31.35
2019-06-07T14:57:33.747Z,31.33
2019-06-07T15:00:11.909Z,30.79
2019-06-07T15:02:42.484Z,31.09
2019-06-07T15:05:14.449Z,31.22
2019-06-07T15:07:45.499Z,31.75
2019-06-07T15:10:17.450Z,32.02
2019-06-07T15:12:48.577Z,31.39
2019-06-07T15:15:22.618Z,31.36
2019-06-07T15:17:53.707Z,31.19
2019-06-07T15:20:27.841Z,30.58
2019-06-07T15:22:59.008Z,31.07
2019-06-07T15:25:31.165Z,31.34
2019-06-07T15:28:02.418Z,31.09
2019-06-07T15:30:35.743Z,30.70
2019-06-07T15:33:06.968Z,30.73
2019-06-07T15:35:38.926Z,29.94
2019-06-07T15:38:10.329Z,30.11
2019-06-07T15:40:41.509Z,30.47
2019-06-07T15:43:12.850Z,30.32
2019-06-07T15:45:43.807Z,29.93
2019-06-07T15:48:15.469Z,30.23
2019-06-07T15:50:46.793Z,30.63
2019-06-07T15:53:18.129Z,30.41
2019-06-07T15:55:49.276Z,30.54
2019-06-07T15:58:20.590Z,30.81
2019-06-07T16:00:51.875Z,30.59
2019-06-07T16:03:24.666Z,30.22
2019-06-07T16:05:56.770Z,29.80
2019-06-07T16:08:28.852Z,30.27
2019-06-07T16:11:02.284Z,30.32
2019-06-07T16:13:32.622Z,30.38
2019-06-07T16:16:04.048Z,30.46
2019-06-07T16:18:35.266Z,29.97
2019-06-07T16:21:06.649Z,30.01
2019-06-07T16:23:37.893Z,30.23
2019-06-07T16:26:09.419Z,30.09
2019-06-07T16:28:40.518Z,30.16
2019-06-07T16:31:12.050Z,30.01
2019-06-07T16:33:43.285Z,30.14
2019-06-07T16:36:16.284Z,29.99
2019-06-07T16:38:48.576Z,30.21
2019-06-07T16:41:19.937Z,30.51
2019-06-07T16:43:53.735Z,29.91
2019-06-07T16:46:24.013Z,29.71
2019-06-07T16:48:55.360Z,29.48
2019-06-07T16:51:26.640Z,29.32
2019-06-07T16:53:58.110Z,29.51
2019-06-07T16:56:29.172Z,29.50
2019-06-07T16:59:00.686Z,29.33
2019-06-07T17:01:31.750Z,29.23
2019-06-07T17:04:03.050Z,29.28
2019-06-07T17:06:34.017Z,29.39
2019-06-07T17:09:07.278Z,29.29
2019-06-07T17:11:38.343Z,29.26
2019-06-07T17:14:09.865Z,29.33
2019-06-07T17:16:41.012Z,29.00
2019-06-07T17:19:12.310Z,28.97
2019-06-07T17:21:43.434Z,28.96
2019-06-07T17:24:13.534Z,28.96
2019-06-07T17:26:45.495Z,28.68
2019-06-07T17:29:16.544Z,28.75
2019-06-07T17:31:48.253Z,28.68
2019-06-07T17:34:19.471Z,28.73
2019-06-07T17:36:50.877Z,28.84
2019-06-07T17:39:21.858Z,28.65
2019-06-07T17:42:01.704Z,28.39
2019-06-07T17:44:26.057Z,28.17
2019-06-07T17:46:57.237Z,28.17
2019-06-07T17:49:31.021Z,28.08
2019-06-07T17:52:02.198Z,28.03
2019-06-07T17:54:33.482Z,27.95
2019-06-07T17:57:06.871Z,27.77
2019-06-07T17:59:38.036Z,27.53
2019-06-07T18:02:15.081Z,27.53
2019-06-07T18:04:43.127Z,27.49
2019-06-07T18:07:14.371Z,27.38
2019-06-07T18:09:45.773Z,27.19
2019-06-07T18:12:16.868Z,26.85
2019-06-07T18:14:48.168Z,26.85
2019-06-07T18:17:33.731Z,26.51
2019-06-07T18:19:53.016Z,26.33
2019-06-07T18:22:24.071Z,26.33
2019-06-07T18:24:55.445Z,26.28
2019-06-07T18:27:26.492Z,26.15
2019-06-07T18:29:59.038Z,26.03
2019-06-07T18:32:30.165Z,25.91
2019-06-07T18:35:00.528Z,25.82
2019-06-07T18:37:31.921Z,25.79
2019-06-07T18:40:03.138Z,25.78
2019-06-07T18:42:40.259Z,25.67
2019-06-07T18:45:11.710Z,25.60
2019-06-07T18:47:43.053Z,25.56
2019-06-07T18:50:14.109Z,25.57
2019-06-07T18:52:46.788Z,25.56
2019-06-07T18:55:17.877Z,25.54
2019-06-07T18:57:50.181Z,25.52
2019-06-07T19:00:23.178Z,25.48
2019-06-07T19:02:55.996Z,25.46
2019-06-07T19:05:27.201Z,25.44
2019-06-07T19:07:59.900Z,25.41
2019-06-07T19:10:33.394Z,25.42
2019-06-07T19:13:04.004Z,25.42
2019-06-07T19:15:35.803Z,25.37
2019-06-07T19:18:08.872Z,25.34
2019-06-07T19:20:41.232Z,25.32
2019-06-07T19:23:14.615Z,25.28
2019-06-07T19:25:47.963Z,25.24
2019-06-07T19:28:21.551Z,25.21
2019-06-07T19:30:57.191Z,25.13
2019-06-07T19:33:29.716Z,25.09
2019-06-07T19:36:11.138Z,25.04
2019-06-07T19:38:38.160Z,25.00
2019-06-07T19:41:19.350Z,24.95
2019-06-07T19:43:48.802Z,24.91
2019-06-07T19:46:25.519Z,24.91
2019-06-07T19:48:58.660Z,25.01
2019-06-07T19:51:29.740Z,25.13
2019-06-07T19:54:04.315Z,24.85
2019-06-07T19:56:34.821Z,24.07
2019-06-07T19:59:08.555Z,22.88
2019-06-07T20:01:42.843Z,22.51
2019-06-07T20:04:14.411Z,22.07
2019-06-07T20:06:46.000Z,20.89
2019-06-07T20:09:18.668Z,20.28
2019-06-07T20:11:56.429Z,20.00
2019-06-07T20:14:30.311Z,19.86
2019-06-07T20:17:03.668Z,19.64
2019-06-07T20:19:36.054Z,19.30
2019-06-07T20:22:07.358Z,18.64
2019-06-07T20:24:41.456Z,18.41
2019-06-07T20:27:15.164Z,18.25
2019-06-07T20:29:48.450Z,18.10
2019-06-07T20:32:25.202Z,17.83
2019-06-07T20:34:55.011Z,17.70
2019-06-07T20:37:26.266Z,17.58
2019-06-07T20:39:57.300Z,17.44
2019-06-07T20:42:28.518Z,17.38
2019-06-07T20:44:59.631Z,17.19
2019-06-07T20:47:30.842Z,17.04
2019-06-07T20:50:02.405Z,16.96
2019-06-07T20:52:37.174Z,16.95
2019-06-07T20:55:10.039Z,16.90
2019-06-07T20:57:41.062Z,16.79
2019-06-07T21:00:21.440Z,16.66
2019-06-07T21:02:48.714Z,16.52
2019-06-07T21:05:19.732Z,16.36
2019-06-07T21:07:51.141Z,16.25
2019-06-07T21:10:22.561Z,16.23
2019-06-07T21:12:52.803Z,16.19
2019-06-07T21:15:24.331Z,16.18
2019-06-07T21:17:58.292Z,16.16
2019-06-07T21:20:29.653Z,16.10
2019-06-07T21:23:00.765Z,16.05
2019-06-07T21:25:32.075Z,16.02
2019-06-07T21:28:03.192Z,16.02
2019-06-07T21:30:34.511Z,15.95
2019-06-07T21:33:05.601Z,15.94
2019-06-07T21:35:39.747Z,15.87
2019-06-07T21:38:12.534Z,15.79
2019-06-07T21:40:43.800Z,15.77
2019-06-07T21:43:14.843Z,15.70
2019-06-07T21:45:45.220Z,15.63
2019-06-07T21:48:16.344Z,15.54
2019-06-07T21:50:47.406Z,15.47
2019-06-07T21:53:18.561Z,15.53
2019-06-07T21:55:49.518Z,15.47
2019-06-07T21:58:21.330Z,15.44
2019-06-07T22:01:01.428Z,15.42
2019-06-07T22:03:32.793Z,15.43
2019-06-07T22:06:05.562Z,15.41
2019-06-07T22:08:37.033Z,15.39
2019-06-07T22:11:08.286Z,15.35
2019-06-07T22:13:39.815Z,15.28
2019-06-07T22:16:23.393Z,15.25
2019-06-07T22:18:43.833Z,15.15
2019-06-07T22:21:14.917Z,15.17
2019-06-07T22:23:45.065Z,15.18
2019-06-07T22:26:16.290Z,15.22
2019-06-07T22:28:47.339Z,15.17
2019-06-07T22:31:19.290Z,15.06
2019-06-07T22:33:50.477Z,14.99
2019-06-07T22:36:21.665Z,14.98
2019-06-07T22:38:52.643Z,14.98
2019-06-07T22:41:23.871Z,14.96
2019-06-07T22:43:54.958Z,14.95
2019-06-07T22:46:36.836Z,14.91
2019-06-07T22:48:58.843Z,14.87
2019-06-07T22:51:29.985Z,14.89
2019-06-07T22:54:01.071Z,14.89
2019-06-07T22:56:32.837Z,14.92
2019-06-07T22:59:04.157Z,15.00
2019-06-07T23:01:35.209Z,15.02
2019-06-07T23:04:06.363Z,15.07
2019-06-07T23:06:37.443Z,15.05
2019-06-07T23:09:09.343Z,15.05
2019-06-07T23:11:40.357Z,15.06
2019-06-07T23:14:11.601Z,15.07
2019-06-07T23:16:54.813Z,15.11
2019-06-07T23:19:16.241Z,15.03
2019-06-07T23:21:47.410Z,15.02
2019-06-07T23:24:20.155Z,15.02
2019-06-07T23:26:51.428Z,15.01
2019-06-07T23:29:22.635Z,14.95
2019-06-07T23:31:53.703Z,14.95
2019-06-07T23:34:23.904Z,14.91
2019-06-07T23:36:55.133Z,14.83
2019-06-07T23:39:26.131Z,14.79
2019-06-07T23:41:57.356Z,14.74
2019-06-07T23:44:28.384Z,14.59
2019-06-07T23:47:10.692Z,14.55
2019-06-07T23:49:32.774Z,14.52
2019-06-07T23:52:04.013Z,14.55
2019-06-07T23:54:34.944Z,14.50
2019-06-07T23:57:06.164Z,14.44
2019-06-07T23:59:37.202Z,14.42
